sensor_id;sensor_type;location;lat;lon;timestamp;P1;durP1;ratioP1;P2;durP2;ratioP2
69754;SDS011;57023;52.218;5.158;2024-02-28T00:00:33;23.00;;;12.48;;
69754;SDS011;57023;52.218;5.158;2024-02-28T00:02:58;24.10;;;12.63;;
69754;SDS011;57023;52.218;5.158;2024-02-28T00:05:24;28.38;;;14.38;;
69754;SDS011;57023;52.218;5.158;2024-02-28T00:07:49;25.63;;;13.13;;
69754;SDS011;57023;52.218;5.158;2024-02-28T00:10:14;24.50;;;13.80;;
69754;SDS011;57023;52.218;5.158;2024-02-28T00:12:40;27.38;;;13.90;;
69754;SDS011;57023;52.218;5.158;2024-02-28T00:15:06;25.15;;;13.15;;
69754;SDS011;57023;52.218;5.158;2024-02-28T00:17:35;24.90;;;12.90;;
69754;SDS011;57023;52.218;5.158;2024-02-28T00:22:28;23.50;;;12.52;;
69754;SDS011;57023;52.218;5.158;2024-02-28T00:24:53;27.77;;;13.57;;
69754;SDS011;57023;52.218;5.158;2024-02-28T00:27:19;25.88;;;13.77;;
69754;SDS011;57023;52.218;5.158;2024-02-28T00:29:44;28.70;;;14.43;;
69754;SDS011;57023;52.218;5.158;2024-02-28T00:32:09;26.20;;;13.38;;
69754;SDS011;57023;52.218;5.158;2024-02-28T00:34:35;25.40;;;13.73;;
69754;SDS011;57023;52.218;5.158;2024-02-28T00:37:00;29.02;;;13.93;;
69754;SDS011;57023;52.218;5.158;2024-02-28T00:39:25;26.80;;;13.45;;
69754;SDS011;57023;52.218;5.158;2024-02-28T00:41:51;28.55;;;14.32;;
69754;SDS011;57023;52.218;5.158;2024-02-28T00:44:17;30.45;;;13.20;;
69754;SDS011;57023;52.218;5.158;2024-02-28T00:46:42;32.63;;;13.77;;
69754;SDS011;57023;52.218;5.158;2024-02-28T00:49:08;27.85;;;14.00;;
69754;SDS011;57023;52.218;5.158;2024-02-28T00:51:33;30.77;;;14.43;;
69754;SDS011;57023;52.218;5.158;2024-02-28T00:53:58;29.83;;;13.65;;
69754;SDS011;57023;52.218;5.158;2024-02-28T00:56:24;29.60;;;14.90;;
69754;SDS011;57023;52.218;5.158;2024-02-28T00:58:50;31.25;;;14.13;;
69754;SDS011;57023;52.218;5.158;2024-02-28T01:01:15;31.33;;;15.43;;
69754;SDS011;57023;52.218;5.158;2024-02-28T01:03:40;32.80;;;15.25;;
69754;SDS011;57023;52.218;5.158;2024-02-28T01:06:06;28.52;;;14.73;;
69754;SDS011;57023;52.218;5.158;2024-02-28T01:08:33;33.65;;;14.85;;
69754;SDS011;57023;52.218;5.158;2024-02-28T01:10:59;34.40;;;15.65;;
69754;SDS011;57023;52.218;5.158;2024-02-28T01:13:27;31.55;;;15.68;;
69754;SDS011;57023;52.218;5.158;2024-02-28T01:15:53;36.80;;;16.10;;
69754;SDS011;57023;52.218;5.158;2024-02-28T01:18:19;38.30;;;16.58;;
69754;SDS011;57023;52.218;5.158;2024-02-28T01:20:44;31.98;;;15.52;;
69754;SDS011;57023;52.218;5.158;2024-02-28T01:23:09;34.80;;;15.70;;
69754;SDS011;57023;52.218;5.158;2024-02-28T01:25:35;32.13;;;15.35;;
69754;SDS011;57023;52.218;5.158;2024-02-28T01:28:00;35.00;;;16.83;;
69754;SDS011;57023;52.218;5.158;2024-02-28T01:30:25;34.65;;;16.23;;
69754;SDS011;57023;52.218;5.158;2024-02-28T01:32:51;37.53;;;16.45;;
69754;SDS011;57023;52.218;5.158;2024-02-28T01:35:16;36.67;;;15.73;;
69754;SDS011;57023;52.218;5.158;2024-02-28T01:37:41;34.50;;;15.50;;
69754;SDS011;57023;52.218;5.158;2024-02-28T01:40:07;36.22;;;15.65;;
69754;SDS011;57023;52.218;5.158;2024-02-28T01:42:33;38.38;;;15.68;;
69754;SDS011;57023;52.218;5.158;2024-02-28T01:44:58;34.17;;;16.77;;
69754;SDS011;57023;52.218;5.158;2024-02-28T01:47:23;36.55;;;16.30;;
69754;SDS011;57023;52.218;5.158;2024-02-28T01:49:49;34.65;;;15.60;;
69754;SDS011;57023;52.218;5.158;2024-02-28T01:52:15;36.22;;;17.08;;
69754;SDS011;57023;52.218;5.158;2024-02-28T01:54:42;34.42;;;16.90;;
69754;SDS011;57023;52.218;5.158;2024-02-28T01:57:07;35.05;;;16.25;;
69754;SDS011;57023;52.218;5.158;2024-02-28T01:59:32;35.85;;;15.50;;
69754;SDS011;57023;52.218;5.158;2024-02-28T02:01:59;31.92;;;14.88;;
69754;SDS011;57023;52.218;5.158;2024-02-28T02:04:25;35.00;;;16.35;;
69754;SDS011;57023;52.218;5.158;2024-02-28T02:06:50;30.42;;;14.75;;
69754;SDS011;57023;52.218;5.158;2024-02-28T02:09:19;31.15;;;15.20;;
69754;SDS011;57023;52.218;5.158;2024-02-28T02:11:44;31.90;;;16.65;;
69754;SDS011;57023;52.218;5.158;2024-02-28T02:14:10;33.83;;;15.55;;
69754;SDS011;57023;52.218;5.158;2024-02-28T02:16:35;32.17;;;16.20;;
69754;SDS011;57023;52.218;5.158;2024-02-28T02:19:00;30.58;;;15.60;;
69754;SDS011;57023;52.218;5.158;2024-02-28T02:21:34;30.98;;;15.25;;
69754;SDS011;57023;52.218;5.158;2024-02-28T02:24:00;30.13;;;15.32;;
69754;SDS011;57023;52.218;5.158;2024-02-28T02:26:25;30.67;;;16.25;;
69754;SDS011;57023;52.218;5.158;2024-02-28T02:28:50;29.27;;;15.50;;
69754;SDS011;57023;52.218;5.158;2024-02-28T02:31:16;25.77;;;14.02;;
69754;SDS011;57023;52.218;5.158;2024-02-28T02:33:41;14.65;;;7.40;;
69754;SDS011;57023;52.218;5.158;2024-02-28T02:36:06;21.40;;;10.50;;
69754;SDS011;57023;52.218;5.158;2024-02-28T02:38:32;14.07;;;7.35;;
69754;SDS011;57023;52.218;5.158;2024-02-28T02:40:57;18.58;;;9.90;;
69754;SDS011;57023;52.218;5.158;2024-02-28T02:43:22;22.02;;;11.82;;
69754;SDS011;57023;52.218;5.158;2024-02-28T02:45:48;25.60;;;13.52;;
69754;SDS011;57023;52.218;5.158;2024-02-28T02:48:13;15.48;;;7.97;;
69754;SDS011;57023;52.218;5.158;2024-02-28T02:50:38;23.23;;;10.90;;
69754;SDS011;57023;52.218;5.158;2024-02-28T02:53:04;14.70;;;7.95;;
69754;SDS011;57023;52.218;5.158;2024-02-28T02:55:29;14.15;;;8.13;;
69754;SDS011;57023;52.218;5.158;2024-02-28T02:57:55;22.45;;;10.25;;
69754;SDS011;57023;52.218;5.158;2024-02-28T03:00:21;18.98;;;9.90;;
69754;SDS011;57023;52.218;5.158;2024-02-28T03:02:46;15.20;;;8.02;;
69754;SDS011;57023;52.218;5.158;2024-02-28T03:05:12;16.92;;;10.23;;
69754;SDS011;57023;52.218;5.158;2024-02-28T03:07:37;19.08;;;10.40;;
69754;SDS011;57023;52.218;5.158;2024-02-28T03:10:02;16.48;;;9.30;;
69754;SDS011;57023;52.218;5.158;2024-02-28T03:12:28;19.60;;;10.90;;
69754;SDS011;57023;52.218;5.158;2024-02-28T03:14:53;15.93;;;8.93;;
69754;SDS011;57023;52.218;5.158;2024-02-28T03:17:19;17.65;;;7.88;;
69754;SDS011;57023;52.218;5.158;2024-02-28T03:19:44;13.55;;;7.47;;
69754;SDS011;57023;52.218;5.158;2024-02-28T03:22:09;16.23;;;8.88;;
69754;SDS011;57023;52.218;5.158;2024-02-28T03:24:38;13.20;;;7.80;;
69754;SDS011;57023;52.218;5.158;2024-02-28T03:27:03;15.63;;;8.38;;
69754;SDS011;57023;52.218;5.158;2024-02-28T03:29:28;14.38;;;7.97;;
69754;SDS011;57023;52.218;5.158;2024-02-28T03:31:54;16.55;;;10.13;;
69754;SDS011;57023;52.218;5.158;2024-02-28T03:34:19;16.60;;;9.85;;
69754;SDS011;57023;52.218;5.158;2024-02-28T03:36:44;13.13;;;7.32;;
69754;SDS011;57023;52.218;5.158;2024-02-28T03:39:11;17.88;;;10.43;;
69754;SDS011;57023;52.218;5.158;2024-02-28T03:41:36;14.32;;;9.25;;
69754;SDS011;57023;52.218;5.158;2024-02-28T03:44:04;16.02;;;8.95;;
69754;SDS011;57023;52.218;5.158;2024-02-28T03:46:30;17.00;;;9.57;;
69754;SDS011;57023;52.218;5.158;2024-02-28T03:48:55;19.60;;;10.40;;
69754;SDS011;57023;52.218;5.158;2024-02-28T03:51:20;17.70;;;9.20;;
69754;SDS011;57023;52.218;5.158;2024-02-28T03:53:46;19.50;;;11.10;;
69754;SDS011;57023;52.218;5.158;2024-02-28T03:56:11;22.75;;;11.27;;
69754;SDS011;57023;52.218;5.158;2024-02-28T03:58:36;18.90;;;9.43;;
69754;SDS011;57023;52.218;5.158;2024-02-28T04:01:02;19.00;;;10.77;;
69754;SDS011;57023;52.218;5.158;2024-02-28T04:03:27;18.20;;;10.20;;
69754;SDS011;57023;52.218;5.158;2024-02-28T04:05:53;17.60;;;10.60;;
69754;SDS011;57023;52.218;5.158;2024-02-28T04:08:18;20.90;;;10.40;;
69754;SDS011;57023;52.218;5.158;2024-02-28T04:10:43;17.10;;;10.18;;
69754;SDS011;57023;52.218;5.158;2024-02-28T04:13:08;21.70;;;11.65;;
69754;SDS011;57023;52.218;5.158;2024-02-28T04:15:34;16.05;;;8.77;;
69754;SDS011;57023;52.218;5.158;2024-02-28T04:17:59;17.58;;;9.82;;
69754;SDS011;57023;52.218;5.158;2024-02-28T04:20:25;17.30;;;10.77;;
69754;SDS011;57023;52.218;5.158;2024-02-28T04:22:50;18.80;;;10.38;;
69754;SDS011;57023;52.218;5.158;2024-02-28T04:25:15;18.23;;;9.00;;
69754;SDS011;57023;52.218;5.158;2024-02-28T04:27:41;20.45;;;11.80;;
69754;SDS011;57023;52.218;5.158;2024-02-28T04:30:06;19.67;;;10.23;;
69754;SDS011;57023;52.218;5.158;2024-02-28T04:32:32;17.67;;;10.70;;
69754;SDS011;57023;52.218;5.158;2024-02-28T04:34:57;15.75;;;8.43;;
69754;SDS011;57023;52.218;5.158;2024-02-28T04:37:23;19.63;;;11.85;;
69754;SDS011;57023;52.218;5.158;2024-02-28T04:39:48;18.13;;;9.82;;
69754;SDS011;57023;52.218;5.158;2024-02-28T04:42:14;24.52;;;11.90;;
69754;SDS011;57023;52.218;5.158;2024-02-28T04:44:41;21.95;;;11.95;;
69754;SDS011;57023;52.218;5.158;2024-02-28T04:47:06;16.75;;;6.80;;
69754;SDS011;57023;52.218;5.158;2024-02-28T04:49:32;14.10;;;8.00;;
69754;SDS011;57023;52.218;5.158;2024-02-28T04:51:57;19.73;;;10.77;;
69754;SDS011;57023;52.218;5.158;2024-02-28T04:54:23;19.85;;;10.55;;
69754;SDS011;57023;52.218;5.158;2024-02-28T04:56:48;22.40;;;11.77;;
69754;SDS011;57023;52.218;5.158;2024-02-28T04:59:16;26.23;;;12.98;;
69754;SDS011;57023;52.218;5.158;2024-02-28T05:01:41;22.20;;;11.52;;
69754;SDS011;57023;52.218;5.158;2024-02-28T05:04:10;22.63;;;11.80;;
69754;SDS011;57023;52.218;5.158;2024-02-28T05:06:36;22.60;;;12.23;;
69754;SDS011;57023;52.218;5.158;2024-02-28T05:09:01;26.70;;;12.98;;
69754;SDS011;57023;52.218;5.158;2024-02-28T05:11:27;20.98;;;11.23;;
69754;SDS011;57023;52.218;5.158;2024-02-28T05:13:52;19.35;;;10.90;;
69754;SDS011;57023;52.218;5.158;2024-02-28T05:16:17;21.50;;;10.68;;
69754;SDS011;57023;52.218;5.158;2024-02-28T05:18:45;23.30;;;13.15;;
69754;SDS011;57023;52.218;5.158;2024-02-28T05:21:11;23.63;;;11.30;;
69754;SDS011;57023;52.218;5.158;2024-02-28T05:23:37;24.85;;;13.32;;
69754;SDS011;57023;52.218;5.158;2024-02-28T05:26:02;27.35;;;13.15;;
69754;SDS011;57023;52.218;5.158;2024-02-28T05:28:32;22.40;;;12.23;;
69754;SDS011;57023;52.218;5.158;2024-02-28T05:30:58;25.48;;;13.25;;
69754;SDS011;57023;52.218;5.158;2024-02-28T05:33:24;22.88;;;12.80;;
69754;SDS011;57023;52.218;5.158;2024-02-28T05:35:50;26.90;;;12.50;;
69754;SDS011;57023;52.218;5.158;2024-02-28T05:38:15;25.38;;;13.27;;
69754;SDS011;57023;52.218;5.158;2024-02-28T05:40:41;24.10;;;12.50;;
69754;SDS011;57023;52.218;5.158;2024-02-28T05:43:06;22.23;;;12.05;;
69754;SDS011;57023;52.218;5.158;2024-02-28T05:45:32;24.85;;;12.90;;
69754;SDS011;57023;52.218;5.158;2024-02-28T05:48:00;23.42;;;12.38;;
69754;SDS011;57023;52.218;5.158;2024-02-28T05:50:25;24.13;;;11.73;;
69754;SDS011;57023;52.218;5.158;2024-02-28T05:52:51;22.55;;;10.35;;
69754;SDS011;57023;52.218;5.158;2024-02-28T05:55:17;26.90;;;13.70;;
69754;SDS011;57023;52.218;5.158;2024-02-28T05:57:42;23.27;;;13.13;;
69754;SDS011;57023;52.218;5.158;2024-02-28T06:00:08;26.15;;;14.32;;
69754;SDS011;57023;52.218;5.158;2024-02-28T06:02:36;22.90;;;12.80;;
69754;SDS011;57023;52.218;5.158;2024-02-28T06:05:02;18.88;;;11.15;;
69754;SDS011;57023;52.218;5.158;2024-02-28T06:07:28;16.85;;;9.18;;
69754;SDS011;57023;52.218;5.158;2024-02-28T06:09:53;25.52;;;14.10;;
69754;SDS011;57023;52.218;5.158;2024-02-28T06:12:19;24.80;;;14.23;;
69754;SDS011;57023;52.218;5.158;2024-02-28T06:14:47;27.02;;;14.73;;
69754;SDS011;57023;52.218;5.158;2024-02-28T06:17:12;25.15;;;13.75;;
69754;SDS011;57023;52.218;5.158;2024-02-28T06:19:38;23.10;;;11.85;;
69754;SDS011;57023;52.218;5.158;2024-02-28T06:22:03;25.77;;;12.75;;
69754;SDS011;57023;52.218;5.158;2024-02-28T06:24:28;31.60;;;14.60;;
69754;SDS011;57023;52.218;5.158;2024-02-28T06:26:54;28.85;;;14.38;;
69754;SDS011;57023;52.218;5.158;2024-02-28T06:29:22;29.45;;;13.98;;
69754;SDS011;57023;52.218;5.158;2024-02-28T06:31:50;26.52;;;13.75;;
69754;SDS011;57023;52.218;5.158;2024-02-28T06:34:16;18.20;;;8.07;;
69754;SDS011;57023;52.218;5.158;2024-02-28T06:36:42;28.85;;;15.63;;
69754;SDS011;57023;52.218;5.158;2024-02-28T06:39:07;22.35;;;12.65;;
69754;SDS011;57023;52.218;5.158;2024-02-28T06:41:32;24.05;;;12.35;;
69754;SDS011;57023;52.218;5.158;2024-02-28T06:43:58;26.73;;;12.40;;
69754;SDS011;57023;52.218;5.158;2024-02-28T06:46:23;29.55;;;16.08;;
69754;SDS011;57023;52.218;5.158;2024-02-28T06:48:49;26.23;;;13.77;;
69754;SDS011;57023;52.218;5.158;2024-02-28T06:51:15;23.60;;;11.93;;
69754;SDS011;57023;52.218;5.158;2024-02-28T06:53:42;28.15;;;15.13;;
69754;SDS011;57023;52.218;5.158;2024-02-28T06:56:07;26.25;;;13.05;;
69754;SDS011;57023;52.218;5.158;2024-02-28T06:58:32;32.88;;;17.00;;
69754;SDS011;57023;52.218;5.158;2024-02-28T07:01:00;27.65;;;13.00;;
69754;SDS011;57023;52.218;5.158;2024-02-28T07:03:26;31.65;;;15.73;;
69754;SDS011;57023;52.218;5.158;2024-02-28T07:05:51;33.45;;;16.95;;
69754;SDS011;57023;52.218;5.158;2024-02-28T07:08:18;33.53;;;16.50;;
69754;SDS011;57023;52.218;5.158;2024-02-28T07:10:44;33.40;;;17.10;;
69754;SDS011;57023;52.218;5.158;2024-02-28T07:13:12;25.25;;;13.15;;
69754;SDS011;57023;52.218;5.158;2024-02-28T07:15:38;31.60;;;16.20;;
69754;SDS011;57023;52.218;5.158;2024-02-28T07:18:05;28.00;;;16.00;;
69754;SDS011;57023;52.218;5.158;2024-02-28T07:20:30;33.00;;;15.55;;
69754;SDS011;57023;52.218;5.158;2024-02-28T07:22:55;34.92;;;18.23;;
69754;SDS011;57023;52.218;5.158;2024-02-28T07:25:21;32.42;;;17.58;;
69754;SDS011;57023;52.218;5.158;2024-02-28T07:27:47;33.60;;;18.58;;
69754;SDS011;57023;52.218;5.158;2024-02-28T07:30:12;27.23;;;13.95;;
69754;SDS011;57023;52.218;5.158;2024-02-28T07:32:37;32.90;;;18.05;;
69754;SDS011;57023;52.218;5.158;2024-02-28T07:35:03;27.63;;;16.23;;
69754;SDS011;57023;52.218;5.158;2024-02-28T07:37:29;34.15;;;17.95;;
69754;SDS011;57023;52.218;5.158;2024-02-28T07:39:54;35.63;;;18.90;;
69754;SDS011;57023;52.218;5.158;2024-02-28T07:42:19;27.33;;;15.55;;
69754;SDS011;57023;52.218;5.158;2024-02-28T07:44:45;31.38;;;17.77;;
69754;SDS011;57023;52.218;5.158;2024-02-28T07:47:10;28.38;;;15.27;;
69754;SDS011;57023;52.218;5.158;2024-02-28T07:49:35;29.17;;;16.25;;
69754;SDS011;57023;52.218;5.158;2024-02-28T07:52:01;26.15;;;15.07;;
69754;SDS011;57023;52.218;5.158;2024-02-28T07:54:26;31.13;;;18.38;;
69754;SDS011;57023;52.218;5.158;2024-02-28T07:56:52;19.08;;;10.88;;
69754;SDS011;57023;52.218;5.158;2024-02-28T07:59:17;29.40;;;18.20;;
69754;SDS011;57023;52.218;5.158;2024-02-28T08:01:43;16.75;;;10.65;;
69754;SDS011;57023;52.218;5.158;2024-02-28T08:04:09;32.17;;;18.52;;
69754;SDS011;57023;52.218;5.158;2024-02-28T08:06:35;27.33;;;13.85;;
69754;SDS011;57023;52.218;5.158;2024-02-28T08:09:00;28.35;;;16.63;;
69754;SDS011;57023;52.218;5.158;2024-02-28T08:11:26;30.25;;;18.15;;
69754;SDS011;57023;52.218;5.158;2024-02-28T08:13:51;31.48;;;17.08;;
69754;SDS011;57023;52.218;5.158;2024-02-28T08:16:17;27.60;;;16.35;;
69754;SDS011;57023;52.218;5.158;2024-02-28T08:18:42;29.13;;;17.30;;
69754;SDS011;57023;52.218;5.158;2024-02-28T08:21:08;28.27;;;17.35;;
69754;SDS011;57023;52.218;5.158;2024-02-28T08:23:34;22.98;;;13.75;;
69754;SDS011;57023;52.218;5.158;2024-02-28T08:25:59;30.95;;;18.02;;
69754;SDS011;57023;52.218;5.158;2024-02-28T08:28:24;32.13;;;17.48;;
69754;SDS011;57023;52.218;5.158;2024-02-28T08:30:50;31.13;;;17.80;;
69754;SDS011;57023;52.218;5.158;2024-02-28T08:33:16;28.10;;;17.00;;
69754;SDS011;57023;52.218;5.158;2024-02-28T08:35:41;31.38;;;15.98;;
69754;SDS011;57023;52.218;5.158;2024-02-28T08:38:07;26.65;;;14.10;;
69754;SDS011;57023;52.218;5.158;2024-02-28T08:40:33;29.50;;;16.30;;
69754;SDS011;57023;52.218;5.158;2024-02-28T08:42:58;26.98;;;15.70;;
69754;SDS011;57023;52.218;5.158;2024-02-28T08:45:23;31.27;;;17.25;;
69754;SDS011;57023;52.218;5.158;2024-02-28T08:47:49;20.77;;;12.05;;
69754;SDS011;57023;52.218;5.158;2024-02-28T08:50:14;28.70;;;15.45;;
69754;SDS011;57023;52.218;5.158;2024-02-28T08:52:39;28.58;;;16.17;;
69754;SDS011;57023;52.218;5.158;2024-02-28T08:55:05;28.02;;;15.10;;
69754;SDS011;57023;52.218;5.158;2024-02-28T08:57:31;24.23;;;13.82;;
69754;SDS011;57023;52.218;5.158;2024-02-28T08:59:56;28.08;;;16.52;;
69754;SDS011;57023;52.218;5.158;2024-02-28T09:02:22;27.95;;;13.50;;
69754;SDS011;57023;52.218;5.158;2024-02-28T09:04:47;27.33;;;15.77;;
69754;SDS011;57023;52.218;5.158;2024-02-28T09:07:16;26.88;;;16.77;;
69754;SDS011;57023;52.218;5.158;2024-02-28T09:12:09;31.48;;;17.58;;
69754;SDS011;57023;52.218;5.158;2024-02-28T09:14:34;24.65;;;15.27;;
69754;SDS011;57023;52.218;5.158;2024-02-28T09:17:00;30.58;;;17.70;;
69754;SDS011;57023;52.218;5.158;2024-02-28T09:19:28;24.15;;;14.68;;
69754;SDS011;57023;52.218;5.158;2024-02-28T09:21:55;26.10;;;16.48;;
69754;SDS011;57023;52.218;5.158;2024-02-28T09:24:21;26.73;;;16.42;;
69754;SDS011;57023;52.218;5.158;2024-02-28T09:26:46;21.80;;;13.75;;
69754;SDS011;57023;52.218;5.158;2024-02-28T09:29:11;21.15;;;13.52;;
69754;SDS011;57023;52.218;5.158;2024-02-28T09:31:37;26.92;;;15.18;;
69754;SDS011;57023;52.218;5.158;2024-02-28T09:34:02;23.50;;;14.60;;
69754;SDS011;57023;52.218;5.158;2024-02-28T09:36:32;26.90;;;15.75;;
69754;SDS011;57023;52.218;5.158;2024-02-28T09:38:57;28.45;;;17.05;;
69754;SDS011;57023;52.218;5.158;2024-02-28T09:41:23;25.30;;;17.00;;
69754;SDS011;57023;52.218;5.158;2024-02-28T09:43:51;28.00;;;17.13;;
69754;SDS011;57023;52.218;5.158;2024-02-28T09:46:17;24.33;;;16.10;;
69754;SDS011;57023;52.218;5.158;2024-02-28T09:48:42;25.67;;;15.93;;
69754;SDS011;57023;52.218;5.158;2024-02-28T09:51:08;23.67;;;15.55;;
69754;SDS011;57023;52.218;5.158;2024-02-28T09:53:34;23.75;;;14.93;;
69754;SDS011;57023;52.218;5.158;2024-02-28T09:55:59;25.27;;;15.52;;
69754;SDS011;57023;52.218;5.158;2024-02-28T09:58:25;19.25;;;12.73;;
69754;SDS011;57023;52.218;5.158;2024-02-28T10:00:51;24.52;;;14.43;;
69754;SDS011;57023;52.218;5.158;2024-02-28T10:03:18;17.17;;;10.60;;
69754;SDS011;57023;52.218;5.158;2024-02-28T10:05:48;25.45;;;15.13;;
69754;SDS011;57023;52.218;5.158;2024-02-28T10:08:14;23.65;;;13.63;;
69754;SDS011;57023;52.218;5.158;2024-02-28T10:10:46;14.40;;;9.18;;
69754;SDS011;57023;52.218;5.158;2024-02-28T10:13:12;21.55;;;13.50;;
69754;SDS011;57023;52.218;5.158;2024-02-28T10:15:37;24.58;;;16.55;;
69754;SDS011;57023;52.218;5.158;2024-02-28T10:18:03;21.50;;;12.05;;
69754;SDS011;57023;52.218;5.158;2024-02-28T10:20:30;28.45;;;17.50;;
69754;SDS011;57023;52.218;5.158;2024-02-28T10:22:55;22.08;;;15.18;;
69754;SDS011;57023;52.218;5.158;2024-02-28T10:25:21;23.30;;;15.30;;
69754;SDS011;57023;52.218;5.158;2024-02-28T10:27:46;25.48;;;16.30;;
69754;SDS011;57023;52.218;5.158;2024-02-28T10:30:12;23.60;;;13.93;;
69754;SDS011;57023;52.218;5.158;2024-02-28T10:32:37;21.67;;;13.02;;
69754;SDS011;57023;52.218;5.158;2024-02-28T10:35:13;22.90;;;13.85;;
69754;SDS011;57023;52.218;5.158;2024-02-28T10:37:42;20.85;;;13.05;;
69754;SDS011;57023;52.218;5.158;2024-02-28T10:40:07;25.55;;;16.25;;
69754;SDS011;57023;52.218;5.158;2024-02-28T10:42:33;21.40;;;14.38;;
69754;SDS011;57023;52.218;5.158;2024-02-28T10:44:59;21.65;;;15.88;;
69754;SDS011;57023;52.218;5.158;2024-02-28T10:47:26;17.52;;;10.48;;
69754;SDS011;57023;52.218;5.158;2024-02-28T10:49:52;19.15;;;11.38;;
69754;SDS011;57023;52.218;5.158;2024-02-28T10:52:21;22.20;;;14.77;;
69754;SDS011;57023;52.218;5.158;2024-02-28T10:54:47;21.52;;;13.35;;
69754;SDS011;57023;52.218;5.158;2024-02-28T10:57:19;19.35;;;12.40;;
69754;SDS011;57023;52.218;5.158;2024-02-28T10:59:46;22.50;;;11.73;;
69754;SDS011;57023;52.218;5.158;2024-02-28T11:02:11;24.30;;;14.90;;
69754;SDS011;57023;52.218;5.158;2024-02-28T11:04:37;18.15;;;11.90;;
69754;SDS011;57023;52.218;5.158;2024-02-28T11:07:03;19.55;;;12.07;;
69754;SDS011;57023;52.218;5.158;2024-02-28T11:09:28;22.58;;;15.75;;
69754;SDS011;57023;52.218;5.158;2024-02-28T11:11:57;23.52;;;14.40;;
69754;SDS011;57023;52.218;5.158;2024-02-28T11:14:22;18.55;;;11.65;;
69754;SDS011;57023;52.218;5.158;2024-02-28T11:17:03;21.67;;;14.02;;
69754;SDS011;57023;52.218;5.158;2024-02-28T11:19:29;24.27;;;14.82;;
69754;SDS011;57023;52.218;5.158;2024-02-28T11:21:58;28.08;;;15.90;;
69754;SDS011;57023;52.218;5.158;2024-02-28T11:24:29;18.52;;;12.55;;
69754;SDS011;57023;52.218;5.158;2024-02-28T11:26:55;22.58;;;13.73;;
69754;SDS011;57023;52.218;5.158;2024-02-28T11:29:22;23.60;;;14.70;;
69754;SDS011;57023;52.218;5.158;2024-02-28T11:31:51;22.00;;;13.50;;
69754;SDS011;57023;52.218;5.158;2024-02-28T11:34:17;26.55;;;16.92;;
69754;SDS011;57023;52.218;5.158;2024-02-28T11:36:43;29.25;;;17.38;;
69754;SDS011;57023;52.218;5.158;2024-02-28T11:39:08;27.05;;;16.98;;
69754;SDS011;57023;52.218;5.158;2024-02-28T11:41:33;30.42;;;18.45;;
69754;SDS011;57023;52.218;5.158;2024-02-28T11:43:59;27.67;;;18.02;;
69754;SDS011;57023;52.218;5.158;2024-02-28T11:46:26;25.67;;;15.40;;
69754;SDS011;57023;52.218;5.158;2024-02-28T11:48:51;26.27;;;18.23;;
69754;SDS011;57023;52.218;5.158;2024-02-28T11:51:17;26.83;;;16.70;;
69754;SDS011;57023;52.218;5.158;2024-02-28T11:53:42;36.42;;;20.02;;
69754;SDS011;57023;52.218;5.158;2024-02-28T11:56:07;32.78;;;19.40;;
69754;SDS011;57023;52.218;5.158;2024-02-28T11:58:33;30.00;;;19.20;;
69754;SDS011;57023;52.218;5.158;2024-02-28T12:00:58;30.73;;;18.83;;
69754;SDS011;57023;52.218;5.158;2024-02-28T12:03:24;30.75;;;17.80;;
69754;SDS011;57023;52.218;5.158;2024-02-28T12:05:50;32.65;;;19.33;;
69754;SDS011;57023;52.218;5.158;2024-02-28T12:08:16;27.75;;;17.90;;
69754;SDS011;57023;52.218;5.158;2024-02-28T12:10:43;28.17;;;17.65;;
69754;SDS011;57023;52.218;5.158;2024-02-28T12:13:09;27.95;;;16.30;;
69754;SDS011;57023;52.218;5.158;2024-02-28T12:15:38;29.15;;;17.33;;
69754;SDS011;57023;52.218;5.158;2024-02-28T12:18:09;29.02;;;15.73;;
69754;SDS011;57023;52.218;5.158;2024-02-28T12:20:37;28.60;;;18.48;;
69754;SDS011;57023;52.218;5.158;2024-02-28T12:23:05;28.05;;;17.65;;
69754;SDS011;57023;52.218;5.158;2024-02-28T12:25:31;25.77;;;16.15;;
69754;SDS011;57023;52.218;5.158;2024-02-28T12:27:56;31.67;;;18.27;;
69754;SDS011;57023;52.218;5.158;2024-02-28T12:30:22;26.30;;;16.05;;
69754;SDS011;57023;52.218;5.158;2024-02-28T12:32:47;28.92;;;17.50;;
69754;SDS011;57023;52.218;5.158;2024-02-28T12:35:13;28.27;;;17.40;;
69754;SDS011;57023;52.218;5.158;2024-02-28T12:37:38;27.00;;;16.88;;
69754;SDS011;57023;52.218;5.158;2024-02-28T12:40:04;29.30;;;16.17;;
69754;SDS011;57023;52.218;5.158;2024-02-28T12:42:30;23.63;;;13.07;;
69754;SDS011;57023;52.218;5.158;2024-02-28T12:44:56;30.85;;;17.98;;
69754;SDS011;57023;52.218;5.158;2024-02-28T12:47:22;29.95;;;17.88;;
69754;SDS011;57023;52.218;5.158;2024-02-28T12:49:47;31.90;;;18.40;;
69754;SDS011;57023;52.218;5.158;2024-02-28T12:52:12;22.58;;;14.82;;
69754;SDS011;57023;52.218;5.158;2024-02-28T12:54:37;25.27;;;13.77;;
69754;SDS011;57023;52.218;5.158;2024-02-28T12:57:03;23.25;;;12.95;;
69754;SDS011;57023;52.218;5.158;2024-02-28T12:59:31;20.15;;;11.48;;
69754;SDS011;57023;52.218;5.158;2024-02-28T13:01:56;25.27;;;14.10;;
69754;SDS011;57023;52.218;5.158;2024-02-28T13:04:21;22.70;;;14.05;;
69754;SDS011;57023;52.218;5.158;2024-02-28T13:06:47;23.55;;;15.68;;
69754;SDS011;57023;52.218;5.158;2024-02-28T13:09:12;22.55;;;14.10;;
69754;SDS011;57023;52.218;5.158;2024-02-28T13:11:38;22.23;;;14.10;;
69754;SDS011;57023;52.218;5.158;2024-02-28T13:14:03;19.25;;;11.40;;
69754;SDS011;57023;52.218;5.158;2024-02-28T13:16:29;20.92;;;13.40;;
69754;SDS011;57023;52.218;5.158;2024-02-28T13:18:55;17.55;;;10.35;;
69754;SDS011;57023;52.218;5.158;2024-02-28T13:21:20;21.42;;;12.88;;
69754;SDS011;57023;52.218;5.158;2024-02-28T13:23:45;23.35;;;15.27;;
69754;SDS011;57023;52.218;5.158;2024-02-28T13:26:11;22.20;;;13.70;;
69754;SDS011;57023;52.218;5.158;2024-02-28T13:28:42;24.30;;;15.63;;
69754;SDS011;57023;52.218;5.158;2024-02-28T13:31:08;22.98;;;14.70;;
69754;SDS011;57023;52.218;5.158;2024-02-28T13:33:34;29.08;;;17.48;;
69754;SDS011;57023;52.218;5.158;2024-02-28T13:36:01;25.35;;;15.57;;
69754;SDS011;57023;52.218;5.158;2024-02-28T13:38:36;22.42;;;13.00;;
69754;SDS011;57023;52.218;5.158;2024-02-28T13:41:01;23.75;;;15.60;;
69754;SDS011;57023;52.218;5.158;2024-02-28T13:43:27;26.65;;;16.58;;
69754;SDS011;57023;52.218;5.158;2024-02-28T13:45:52;22.52;;;14.30;;
69754;SDS011;57023;52.218;5.158;2024-02-28T13:48:20;27.58;;;17.23;;
69754;SDS011;57023;52.218;5.158;2024-02-28T13:50:46;23.75;;;14.88;;
69754;SDS011;57023;52.218;5.158;2024-02-28T13:53:13;32.55;;;20.17;;
69754;SDS011;57023;52.218;5.158;2024-02-28T13:55:40;28.67;;;17.55;;
69754;SDS011;57023;52.218;5.158;2024-02-28T13:58:05;27.05;;;15.07;;
69754;SDS011;57023;52.218;5.158;2024-02-28T14:00:31;30.42;;;18.67;;
69754;SDS011;57023;52.218;5.158;2024-02-28T14:02:57;34.92;;;22.85;;
69754;SDS011;57023;52.218;5.158;2024-02-28T14:05:22;25.35;;;13.63;;
69754;SDS011;57023;52.218;5.158;2024-02-28T14:07:47;33.88;;;18.50;;
69754;SDS011;57023;52.218;5.158;2024-02-28T14:10:14;31.58;;;18.70;;
69754;SDS011;57023;52.218;5.158;2024-02-28T14:12:41;33.83;;;18.63;;
69754;SDS011;57023;52.218;5.158;2024-02-28T14:15:06;37.40;;;20.73;;
69754;SDS011;57023;52.218;5.158;2024-02-28T14:17:32;38.00;;;21.50;;
69754;SDS011;57023;52.218;5.158;2024-02-28T14:19:57;34.17;;;17.27;;